sensor_id;sensor_type;location;lat;lon;timestamp;temperature;humidity
3628;DHT22;1830;49.000;12.074;2022-11-20T00:04:24;1.40;99.90
3628;DHT22;1830;49.000;12.074;2022-11-20T00:06:51;1.40;99.90
3628;DHT22;1830;49.000;12.074;2022-11-20T00:09:18;1.50;99.90
3628;DHT22;1830;49.000;12.074;2022-11-20T00:11:46;1.50;99.90
3628;DHT22;1830;49.000;12.074;2022-11-20T00:14:12;1.50;99.90
3628;DHT22;1830;49.000;12.074;2022-11-20T00:16:39;1.50;99.90
3628;DHT22;1830;49.000;12.074;2022-11-20T00:19:06;1.50;99.90
3628;DHT22;1830;49.000;12.074;2022-11-20T00:21:34;1.50;99.90
3628;DHT22;1830;49.000;12.074;2022-11-20T00:24:01;1.40;99.90
3628;DHT22;1830;49.000;12.074;2022-11-20T00:26:29;1.40;99.90
3628;DHT22;1830;49.000;12.074;2022-11-20T00:28:58;1.40;99.90
3628;DHT22;1830;49.000;12.074;2022-11-20T00:31:25;1.50;99.90
3628;DHT22;1830;49.000;12.074;2022-11-20T00:33:53;1.50;99.90
3628;DHT22;1830;49.000;12.074;2022-11-20T00:36:22;1.50;99.90
3628;DHT22;1830;49.000;12.074;2022-11-20T00:38:53;1.40;99.90
3628;DHT22;1830;49.000;12.074;2022-11-20T00:41:20;1.40;99.90
3628;DHT22;1830;49.000;12.074;2022-11-20T00:43:47;1.40;99.90
3628;DHT22;1830;49.000;12.074;2022-11-20T00:46:16;1.50;99.90
3628;DHT22;1830;49.000;12.074;2022-11-20T00:48:43;1.50;99.90
3628;DHT22;1830;49.000;12.074;2022-11-20T00:51:12;1.50;99.90
3628;DHT22;1830;49.000;12.074;2022-11-20T00:53:39;1.50;99.90
3628;DHT22;1830;49.000;12.074;2022-11-20T00:56:11;1.50;99.90
3628;DHT22;1830;49.000;12.074;2022-11-20T00:58:39;1.50;99.90
3628;DHT22;1830;49.000;12.074;2022-11-20T01:01:07;1.50;99.90
3628;DHT22;1830;49.000;12.074;2022-11-20T01:03:36;1.50;99.90
3628;DHT22;1830;49.000;12.074;2022-11-20T01:06:07;1.50;99.90
3628;DHT22;1830;49.000;12.074;2022-11-20T01:08:35;1.50;99.90
3628;DHT22;1830;49.000;12.074;2022-11-20T01:11:03;1.50;99.90
3628;DHT22;1830;49.000;12.074;2022-11-20T01:13:32;1.50;99.90
3628;DHT22;1830;49.000;12.074;2022-11-20T01:16:06;1.50;99.90
3628;DHT22;1830;49.000;12.074;2022-11-20T01:18:34;1.50;99.90
3628;DHT22;1830;49.000;12.074;2022-11-20T01:21:02;1.60;99.90
3628;DHT22;1830;49.000;12.074;2022-11-20T01:23:32;1.60;99.90
3628;DHT22;1830;49.000;12.074;2022-11-20T01:26:01;1.60;99.90
3628;DHT22;1830;49.000;12.074;2022-11-20T01:28:28;1.60;99.90
3628;DHT22;1830;49.000;12.074;2022-11-20T01:30:57;1.50;99.90
3628;DHT22;1830;49.000;12.074;2022-11-20T01:33:24;1.60;99.90
3628;DHT22;1830;49.000;12.074;2022-11-20T01:35:51;1.60;99.90
3628;DHT22;1830;49.000;12.074;2022-11-20T01:38:18;1.60;99.90
3628;DHT22;1830;49.000;12.074;2022-11-20T01:40:54;1.60;99.90
3628;DHT22;1830;49.000;12.074;2022-11-20T01:43:21;1.60;99.90
3628;DHT22;1830;49.000;12.074;2022-11-20T01:46:04;1.60;99.90
3628;DHT22;1830;49.000;12.074;2022-11-20T01:48:36;1.60;99.90
3628;DHT22;1830;49.000;12.074;2022-11-20T01:51:08;1.60;99.90
3628;DHT22;1830;49.000;12.074;2022-11-20T01:53:37;1.60;99.90
3628;DHT22;1830;49.000;12.074;2022-11-20T01:56:08;1.70;99.90
3628;DHT22;1830;49.000;12.074;2022-11-20T01:58:42;1.70;99.90
3628;DHT22;1830;49.000;12.074;2022-11-20T02:01:12;1.70;99.90
3628;DHT22;1830;49.000;12.074;2022-11-20T02:03:42;1.70;99.90
3628;DHT22;1830;49.000;12.074;2022-11-20T02:06:14;1.70;99.90
3628;DHT22;1830;49.000;12.074;2022-11-20T02:08:43;1.60;99.90
3628;DHT22;1830;49.000;12.074;2022-11-20T02:11:09;1.70;99.90
3628;DHT22;1830;49.000;12.074;2022-11-20T02:13:38;1.70;99.90
3628;DHT22;1830;49.000;12.074;2022-11-20T02:16:20;1.70;99.90
3628;DHT22;1830;49.000;12.074;2022-11-20T02:18:49;1.70;99.90
3628;DHT22;1830;49.000;12.074;2022-11-20T02:21:27;1.60;99.90
3628;DHT22;1830;49.000;12.074;2022-11-20T02:24:00;1.60;99.90
3628;DHT22;1830;49.000;12.074;2022-11-20T02:26:30;1.60;99.90
3628;DHT22;1830;49.000;12.074;2022-11-20T02:28:58;1.50;99.90
3628;DHT22;1830;49.000;12.074;2022-11-20T02:31:26;1.60;99.90
3628;DHT22;1830;49.000;12.074;2022-11-20T02:33:57;1.60;99.90
3628;DHT22;1830;49.000;12.074;2022-11-20T02:36:26;1.70;99.90
3628;DHT22;1830;49.000;12.074;2022-11-20T02:38:54;1.60;99.90
3628;DHT22;1830;49.000;12.074;2022-11-20T02:41:30;1.60;99.90
3628;DHT22;1830;49.000;12.074;2022-11-20T02:43:57;1.70;99.90
3628;DHT22;1830;49.000;12.074;2022-11-20T02:46:24;1.70;99.90
3628;DHT22;1830;49.000;12.074;2022-11-20T02:48:51;1.60;99.90
3628;DHT22;1830;49.000;12.074;2022-11-20T02:51:17;1.60;99.90
3628;DHT22;1830;49.000;12.074;2022-11-20T02:53:44;1.60;99.90
3628;DHT22;1830;49.000;12.074;2022-11-20T02:56:11;1.70;99.90
3628;DHT22;1830;49.000;12.074;2022-11-20T02:58:39;1.60;99.90
3628;DHT22;1830;49.000;12.074;2022-11-20T03:01:06;1.60;99.90
3628;DHT22;1830;49.000;12.074;2022-11-20T03:03:33;1.60;99.90
3628;DHT22;1830;49.000;12.074;2022-11-20T03:06:00;1.60;99.90
3628;DHT22;1830;49.000;12.074;2022-11-20T03:08:27;1.60;99.90
3628;DHT22;1830;49.000;12.074;2022-11-20T03:10:54;1.60;99.90
3628;DHT22;1830;49.000;12.074;2022-11-20T03:13:21;1.60;99.90
3628;DHT22;1830;49.000;12.074;2022-11-20T03:15:49;1.60;99.90
3628;DHT22;1830;49.000;12.074;2022-11-20T03:18:16;1.50;99.90
3628;DHT22;1830;49.000;12.074;2022-11-20T03:20:43;1.50;99.90
3628;DHT22;1830;49.000;12.074;2022-11-20T03:23:11;1.50;99.90
3628;DHT22;1830;49.000;12.074;2022-11-20T03:25:38;1.50;99.90
3628;DHT22;1830;49.000;12.074;2022-11-20T03:28:05;1.50;99.90
3628;DHT22;1830;49.000;12.074;2022-11-20T03:30:32;1.60;99.90
3628;DHT22;1830;49.000;12.074;2022-11-20T03:33:00;1.60;99.90
3628;DHT22;1830;49.000;12.074;2022-11-20T03:35:29;1.70;99.90
3628;DHT22;1830;49.000;12.074;2022-11-20T03:37:57;1.60;99.90
3628;DHT22;1830;49.000;12.074;2022-11-20T03:40:28;1.60;99.90
3628;DHT22;1830;49.000;12.074;2022-11-20T03:42:57;1.60;99.90
3628;DHT22;1830;49.000;12.074;2022-11-20T03:45:24;1.60;99.90
3628;DHT22;1830;49.000;12.074;2022-11-20T03:47:50;1.70;99.90
3628;DHT22;1830;49.000;12.074;2022-11-20T03:50:19;1.70;99.90
3628;DHT22;1830;49.000;12.074;2022-11-20T03:52:46;1.80;99.90
3628;DHT22;1830;49.000;12.074;2022-11-20T03:55:13;1.80;99.90
3628;DHT22;1830;49.000;12.074;2022-11-20T03:57:40;1.80;99.90
3628;DHT22;1830;49.000;12.074;2022-11-20T04:00:07;1.80;99.90
3628;DHT22;1830;49.000;12.074;2022-11-20T04:02:34;1.80;99.90
3628;DHT22;1830;49.000;12.074;2022-11-20T04:05:01;1.90;99.90
3628;DHT22;1830;49.000;12.074;2022-11-20T04:07:29;1.80;99.90
3628;DHT22;1830;49.000;12.074;2022-11-20T04:10:07;1.80;99.90
3628;DHT22;1830;49.000;12.074;2022-11-20T04:12:34;1.80;99.90
3628;DHT22;1830;49.000;12.074;2022-11-20T04:15:01;1.90;99.90
3628;DHT22;1830;49.000;12.074;2022-11-20T04:17:28;1.80;99.90
3628;DHT22;1830;49.000;12.074;2022-11-20T04:19:54;1.80;99.90
3628;DHT22;1830;49.000;12.074;2022-11-20T04:22:21;1.80;99.90
3628;DHT22;1830;49.000;12.074;2022-11-20T04:24:49;1.80;99.90
3628;DHT22;1830;49.000;12.074;2022-11-20T04:27:16;1.90;99.90
3628;DHT22;1830;49.000;12.074;2022-11-20T04:29:43;1.70;99.90
3628;DHT22;1830;49.000;12.074;2022-11-20T04:32:10;1.80;99.90
3628;DHT22;1830;49.000;12.074;2022-11-20T04:34:37;1.80;99.90
3628;DHT22;1830;49.000;12.074;2022-11-20T04:37:04;1.80;99.90
3628;DHT22;1830;49.000;12.074;2022-11-20T04:39:31;1.80;99.90
3628;DHT22;1830;49.000;12.074;2022-11-20T04:41:59;1.80;99.90
3628;DHT22;1830;49.000;12.074;2022-11-20T04:44:43;1.80;99.90
3628;DHT22;1830;49.000;12.074;2022-11-20T04:47:10;1.80;99.90
3628;DHT22;1830;49.000;12.074;2022-11-20T04:49:37;1.80;99.90
3628;DHT22;1830;49.000;12.074;2022-11-20T04:52:04;1.80;99.90
3628;DHT22;1830;49.000;12.074;2022-11-20T04:54:31;1.80;99.90
3628;DHT22;1830;49.000;12.074;2022-11-20T04:56:59;1.80;99.90
3628;DHT22;1830;49.000;12.074;2022-11-20T04:59:26;1.80;99.90
3628;DHT22;1830;49.000;12.074;2022-11-20T05:01:59;1.80;99.90
3628;DHT22;1830;49.000;12.074;2022-11-20T05:04:25;1.80;99.90
3628;DHT22;1830;49.000;12.074;2022-11-20T05:06:52;1.70;99.90
3628;DHT22;1830;49.000;12.074;2022-11-20T05:09:19;1.70;99.90
3628;DHT22;1830;49.000;12.074;2022-11-20T05:11:46;1.70;99.90
3628;DHT22;1830;49.000;12.074;2022-11-20T05:14:14;1.80;99.90
3628;DHT22;1830;49.000;12.074;2022-11-20T05:16:41;1.80;99.90
3628;DHT22;1830;49.000;12.074;2022-11-20T05:19:08;1.80;99.90
3628;DHT22;1830;49.000;12.074;2022-11-20T05:21:35;1.80;99.90
3628;DHT22;1830;49.000;12.074;2022-11-20T05:24:02;1.80;99.90
3628;DHT22;1830;49.000;12.074;2022-11-20T05:26:30;1.80;99.90
3628;DHT22;1830;49.000;12.074;2022-11-20T05:28:57;1.80;99.90
3628;DHT22;1830;49.000;12.074;2022-11-20T05:31:25;1.80;99.90
3628;DHT22;1830;49.000;12.074;2022-11-20T05:33:52;1.70;99.90
3628;DHT22;1830;49.000;12.074;2022-11-20T05:36:19;1.80;99.90
3628;DHT22;1830;49.000;12.074;2022-11-20T05:38:46;1.80;99.90
3628;DHT22;1830;49.000;12.074;2022-11-20T05:41:14;1.80;99.90
3628;DHT22;1830;49.000;12.074;2022-11-20T05:43:42;1.90;99.90
3628;DHT22;1830;49.000;12.074;2022-11-20T05:46:12;1.90;99.90
3628;DHT22;1830;49.000;12.074;2022-11-20T05:48:42;1.90;99.90
3628;DHT22;1830;49.000;12.074;2022-11-20T05:51:11;1.90;99.90
3628;DHT22;1830;49.000;12.074;2022-11-20T05:53:38;1.70;99.90
3628;DHT22;1830;49.000;12.074;2022-11-20T05:56:06;1.90;99.90
3628;DHT22;1830;49.000;12.074;2022-11-20T12:05:18;5.30;99.90
3628;DHT22;1830;49.000;12.074;2022-11-20T12:07:47;5.20;99.90
3628;DHT22;1830;49.000;12.074;2022-11-20T12:10:21;5.10;99.90
3628;DHT22;1830;49.000;12.074;2022-11-20T12:12:52;5.20;99.90
3628;DHT22;1830;49.000;12.074;2022-11-20T12:15:27;5.20;99.90
3628;DHT22;1830;49.000;12.074;2022-11-20T12:17:55;5.20;99.90
3628;DHT22;1830;49.000;12.074;2022-11-20T12:20:27;5.30;99.90
3628;DHT22;1830;49.000;12.074;2022-11-20T12:23:06;5.20;99.90
3628;DHT22;1830;49.000;12.074;2022-11-20T12:25:36;5.30;99.90
3628;DHT22;1830;49.000;12.074;2022-11-20T12:31:20;5.30;99.90
3628;DHT22;1830;49.000;12.074;2022-11-20T12:33:58;5.30;99.90
3628;DHT22;1830;49.000;12.074;2022-11-20T12:37:08;5.30;99.90
3628;DHT22;1830;49.000;12.074;2022-11-20T12:39:50;5.40;99.90
3628;DHT22;1830;49.000;12.074;2022-11-20T12:42:39;5.30;99.90
3628;DHT22;1830;49.000;12.074;2022-11-20T12:45:51;5.30;99.90
3628;DHT22;1830;49.000;12.074;2022-11-20T12:48:49;5.40;99.90
3628;DHT22;1830;49.000;12.074;2022-11-20T12:51:40;5.30;99.90
3628;DHT22;1830;49.000;12.074;2022-11-20T12:54:36;5.40;99.90
3628;DHT22;1830;49.000;12.074;2022-11-20T12:57:09;5.30;99.90
3628;DHT22;1830;49.000;12.074;2022-11-20T12:59:57;5.40;99.90
3628;DHT22;1830;49.000;12.074;2022-11-20T13:02:33;5.40;99.90
3628;DHT22;1830;49.000;12.074;2022-11-20T13:05:20;5.40;99.90
3628;DHT22;1830;49.000;12.074;2022-11-20T13:07:51;5.40;99.90
3628;DHT22;1830;49.000;12.074;2022-11-20T13:10:26;5.40;99.90
3628;DHT22;1830;49.000;12.074;2022-11-20T13:13:03;5.40;99.90
3628;DHT22;1830;49.000;12.074;2022-11-20T13:15:40;5.50;99.90
3628;DHT22;1830;49.000;12.074;2022-11-20T13:18:11;5.40;99.90
3628;DHT22;1830;49.000;12.074;2022-11-20T13:20:42;5.60;99.90
3628;DHT22;1830;49.000;12.074;2022-11-20T13:23:09;5.60;99.90
3628;DHT22;1830;49.000;12.074;2022-11-20T13:25:39;5.60;99.90
3628;DHT22;1830;49.000;12.074;2022-11-20T13:28:27;5.60;99.90
3628;DHT22;1830;49.000;12.074;2022-11-20T13:30:55;5.60;99.90
3628;DHT22;1830;49.000;12.074;2022-11-20T13:33:27;5.70;99.90
3628;DHT22;1830;49.000;12.074;2022-11-20T13:35:56;5.70;99.90
3628;DHT22;1830;49.000;12.074;2022-11-20T13:38:27;5.60;99.90
3628;DHT22;1830;49.000;12.074;2022-11-20T13:40:56;5.60;99.90
3628;DHT22;1830;49.000;12.074;2022-11-20T13:43:33;5.50;99.90
3628;DHT22;1830;49.000;12.074;2022-11-20T13:46:02;5.60;99.90
3628;DHT22;1830;49.000;12.074;2022-11-20T13:48:31;5.60;99.90
3628;DHT22;1830;49.000;12.074;2022-11-20T13:51:24;5.60;99.90
3628;DHT22;1830;49.000;12.074;2022-11-20T13:56:59;5.50;99.90
3628;DHT22;1830;49.000;12.074;2022-11-20T13:59:40;5.60;99.90
3628;DHT22;1830;49.000;12.074;2022-11-20T14:02:12;5.60;99.90
3628;DHT22;1830;49.000;12.074;2022-11-20T14:04:45;5.60;99.90
3628;DHT22;1830;49.000;12.074;2022-11-20T14:07:12;5.60;99.90
3628;DHT22;1830;49.000;12.074;2022-11-20T14:09:49;5.60;99.90
3628;DHT22;1830;49.000;12.074;2022-11-20T14:12:21;5.60;99.90
3628;DHT22;1830;49.000;12.074;2022-11-20T14:14:49;5.60;99.90
3628;DHT22;1830;49.000;12.074;2022-11-20T14:17:20;5.60;99.90
3628;DHT22;1830;49.000;12.074;2022-11-20T14:19:48;5.60;99.90
3628;DHT22;1830;49.000;12.074;2022-11-20T14:22:21;5.60;99.90
3628;DHT22;1830;49.000;12.074;2022-11-20T14:24:51;5.50;99.90
3628;DHT22;1830;49.000;12.074;2022-11-20T14:27:28;5.60;99.90
3628;DHT22;1830;49.000;12.074;2022-11-20T14:29:55;5.50;99.90
3628;DHT22;1830;49.000;12.074;2022-11-20T14:32:26;5.50;99.90
3628;DHT22;1830;49.000;12.074;2022-11-20T14:35:02;5.50;99.90
3628;DHT22;1830;49.000;12.074;2022-11-20T14:37:33;5.60;99.90
3628;DHT22;1830;49.000;12.074;2022-11-20T14:40:05;5.50;99.90
3628;DHT22;1830;49.000;12.074;2022-11-20T14:42:33;5.40;99.90
3628;DHT22;1830;49.000;12.074;2022-11-20T14:45:03;5.50;99.90
3628;DHT22;1830;49.000;12.074;2022-11-20T14:47:31;5.40;99.90
3628;DHT22;1830;49.000;12.074;2022-11-20T14:49:59;5.40;99.90
3628;DHT22;1830;49.000;12.074;2022-11-20T14:52:27;5.40;99.90
3628;DHT22;1830;49.000;12.074;2022-11-20T14:54:57;5.40;99.90
3628;DHT22;1830;49.000;12.074;2022-11-20T14:57:26;5.50;99.90
3628;DHT22;1830;49.000;12.074;2022-11-20T15:00:19;5.50;99.90
3628;DHT22;1830;49.000;12.074;2022-11-20T15:02:57;5.50;99.90
3628;DHT22;1830;49.000;12.074;2022-11-20T15:05:25;5.60;99.90
3628;DHT22;1830;49.000;12.074;2022-11-20T15:08:08;5.60;99.90
3628;DHT22;1830;49.000;12.074;2022-11-20T15:10:36;5.60;99.90
3628;DHT22;1830;49.000;12.074;2022-11-20T15:13:05;5.50;99.90
3628;DHT22;1830;49.000;12.074;2022-11-20T15:15:42;5.50;99.90
3628;DHT22;1830;49.000;12.074;2022-11-20T15:18:11;5.50;99.90
3628;DHT22;1830;49.000;12.074;2022-11-20T15:20:39;5.50;99.90
3628;DHT22;1830;49.000;12.074;2022-11-20T15:23:10;5.50;99.90
3628;DHT22;1830;49.000;12.074;2022-11-20T15:25:38;5.50;99.90
3628;DHT22;1830;49.000;12.074;2022-11-20T15:28:13;5.40;99.90
3628;DHT22;1830;49.000;12.074;2022-11-20T15:30:43;5.40;99.90
3628;DHT22;1830;49.000;12.074;2022-11-20T15:33:10;5.40;99.90
3628;DHT22;1830;49.000;12.074;2022-11-20T15:35:37;5.40;99.90
3628;DHT22;1830;49.000;12.074;2022-11-20T15:38:04;5.50;99.90
3628;DHT22;1830;49.000;12.074;2022-11-20T15:40:31;5.40;99.90
3628;DHT22;1830;49.000;12.074;2022-11-20T15:42:58;5.40;99.90
3628;DHT22;1830;49.000;12.074;2022-11-20T15:45:37;5.40;99.90
3628;DHT22;1830;49.000;12.074;2022-11-20T15:48:09;5.40;99.90
3628;DHT22;1830;49.000;12.074;2022-11-20T15:50:43;5.50;99.90
3628;DHT22;1830;49.000;12.074;2022-11-20T15:53:13;5.50;99.90
3628;DHT22;1830;49.000;12.074;2022-11-20T15:55:40;5.50;99.90
3628;DHT22;1830;49.000;12.074;2022-11-20T15:58:07;5.50;99.90
3628;DHT22;1830;49.000;12.074;2022-11-20T16:00:34;5.50;99.90
3628;DHT22;1830;49.000;12.074;2022-11-20T16:03:01;5.50;99.90
3628;DHT22;1830;49.000;12.074;2022-11-20T16:05:30;5.50;99.90
3628;DHT22;1830;49.000;12.074;2022-11-20T16:07:56;5.50;99.90
3628;DHT22;1830;49.000;12.074;2022-11-20T16:10:24;5.50;99.90
3628;DHT22;1830;49.000;12.074;2022-11-20T16:12:53;5.50;99.90
3628;DHT22;1830;49.000;12.074;2022-11-20T16:15:37;5.40;99.90
3628;DHT22;1830;49.000;12.074;2022-11-20T16:18:15;5.50;99.90
3628;DHT22;1830;49.000;12.074;2022-11-20T16:20:44;5.40;99.90
3628;DHT22;1830;49.000;12.074;2022-11-20T16:23:11;5.40;99.90
3628;DHT22;1830;49.000;12.074;2022-11-20T16:25:44;5.40;99.90
3628;DHT22;1830;49.000;12.074;2022-11-20T16:28:11;5.40;99.90
3628;DHT22;1830;49.000;12.074;2022-11-20T16:30:39;6.00;99.90
3628;DHT22;1830;49.000;12.074;2022-11-20T16:33:09;5.80;99.90
3628;DHT22;1830;49.000;12.074;2022-11-20T16:35:37;5.70;99.90
3628;DHT22;1830;49.000;12.074;2022-11-20T16:38:05;5.70;99.90
3628;DHT22;1830;49.000;12.074;2022-11-20T16:40:32;5.60;99.90
3628;DHT22;1830;49.000;12.074;2022-11-20T16:43:07;5.40;99.90
3628;DHT22;1830;49.000;12.074;2022-11-20T16:45:37;5.40;99.90
3628;DHT22;1830;49.000;12.074;2022-11-20T16:48:06;5.30;99.90
3628;DHT22;1830;49.000;12.074;2022-11-20T16:50:33;5.30;99.90
3628;DHT22;1830;49.000;12.074;2022-11-20T16:52:59;5.30;99.90
3628;DHT22;1830;49.000;12.074;2022-11-20T16:55:28;5.20;99.90
3628;DHT22;1830;49.000;12.074;2022-11-20T16:57:54;5.20;99.90
3628;DHT22;1830;49.000;12.074;2022-11-20T17:00:21;5.20;99.90
3628;DHT22;1830;49.000;12.074;2022-11-20T17:02:48;5.00;99.90
3628;DHT22;1830;49.000;12.074;2022-11-20T17:05:15;5.00;99.90
3628;DHT22;1830;49.000;12.074;2022-11-20T17:07:42;5.00;99.90
3628;DHT22;1830;49.000;12.074;2022-11-20T17:10:09;5.00;99.90
3628;DHT22;1830;49.000;12.074;2022-11-20T17:12:37;5.00;99.90
3628;DHT22;1830;49.000;12.074;2022-11-20T17:15:05;5.00;99.90
3628;DHT22;1830;49.000;12.074;2022-11-20T17:17:32;5.00;99.90
3628;DHT22;1830;49.000;12.074;2022-11-20T17:20:02;5.10;99.90
3628;DHT22;1830;49.000;12.074;2022-11-20T17:22:30;5.10;99.90
3628;DHT22;1830;49.000;12.074;2022-11-20T17:24:57;5.10;99.90
3628;DHT22;1830;49.000;12.074;2022-11-20T17:27:24;5.00;99.90
3628;DHT22;1830;49.000;12.074;2022-11-20T17:29:52;5.00;99.90
3628;DHT22;1830;49.000;12.074;2022-11-20T17:32:21;4.90;99.90
3628;DHT22;1830;49.000;12.074;2022-11-20T17:34:48;4.90;99.90
3628;DHT22;1830;49.000;12.074;2022-11-20T17:37:15;4.80;99.90
3628;DHT22;1830;49.000;12.074;2022-11-20T17:39:42;4.80;99.90
3628;DHT22;1830;49.000;12.074;2022-11-20T17:42:09;4.80;99.90
3628;DHT22;1830;49.000;12.074;2022-11-20T17:45:03;4.80;99.90
3628;DHT22;1830;49.000;12.074;2022-11-20T17:47:30;4.70;99.90
3628;DHT22;1830;49.000;12.074;2022-11-20T17:49:57;4.70;99.90
3628;DHT22;1830;49.000;12.074;2022-11-20T17:52:24;4.60;99.90
3628;DHT22;1830;49.000;12.074;2022-11-20T17:54:51;4.50;99.90
3628;DHT22;1830;49.000;12.074;2022-11-20T17:57:20;4.50;99.90
3628;DHT22;1830;49.000;12.074;2022-11-20T18:00:07;4.50;99.90
